createdAt,value
2022-12-16T00:01:53.710Z,1.40
2022-12-16T00:04:22.909Z,1.40
2022-12-16T00:06:50.854Z,1.60
2022-12-16T00:09:19.708Z,1.57
2022-12-16T00:11:49.251Z,1.40
2022-12-16T00:14:17.278Z,1.37
2022-12-16T00:16:45.342Z,1.60
2022-12-16T00:19:14.097Z,1.60
2022-12-16T00:21:42.052Z,1.57
2022-12-16T00:24:09.984Z,1.73
2022-12-16T00:26:38.143Z,1.50
2022-12-16T00:29:07.451Z,2.10
2022-12-16T00:31:35.440Z,1.80
2022-12-16T00:34:04.578Z,1.93
2022-12-16T00:36:32.590Z,2.00
2022-12-16T00:39:00.558Z,1.97
2022-12-16T00:41:28.585Z,1.87
2022-12-16T00:43:56.827Z,2.17
2022-12-16T00:46:26.526Z,2.00
2022-12-16T00:48:55.001Z,1.77
2022-12-16T00:51:23.431Z,2.03
2022-12-16T00:53:51.454Z,1.57
2022-12-16T00:56:19.659Z,1.80
2022-12-16T00:58:48.157Z,1.90
2022-12-16T01:01:16.265Z,2.00
2022-12-16T01:03:45.632Z,2.13
2022-12-16T01:06:16.509Z,2.87
2022-12-16T01:08:48.303Z,1.90
2022-12-16T01:11:17.723Z,2.00
2022-12-16T01:13:46.164Z,2.43
2022-12-16T01:16:14.808Z,2.10
2022-12-16T01:18:42.960Z,2.10
2022-12-16T01:21:15.001Z,2.53
2022-12-16T01:23:43.032Z,2.47
2022-12-16T01:26:14.386Z,2.27
2022-12-16T01:28:42.320Z,2.30
2022-12-16T01:31:10.292Z,2.50
2022-12-16T01:33:38.255Z,2.50
2022-12-16T01:36:08.989Z,2.17
2022-12-16T01:38:38.511Z,2.30
2022-12-16T01:41:06.844Z,2.30
2022-12-16T01:43:37.365Z,2.10
2022-12-16T01:46:10.629Z,2.40
2022-12-16T01:48:45.784Z,1.87
2022-12-16T01:51:19.982Z,1.90
2022-12-16T01:53:54.720Z,1.80
2022-12-16T01:56:26.523Z,1.77
2022-12-16T01:58:55.912Z,1.70
2022-12-16T02:01:24.699Z,1.63
2022-12-16T02:03:55.587Z,1.63
2022-12-16T02:06:23.666Z,1.93
2022-12-16T02:08:58.002Z,1.33
2022-12-16T02:11:58.400Z,1.33
2022-12-16T02:14:52.714Z,1.87
2022-12-16T02:17:29.344Z,1.53
2022-12-16T02:20:30.671Z,1.60
2022-12-16T02:23:22.103Z,1.33
2022-12-16T02:26:08.612Z,1.60
2022-12-16T02:28:55.220Z,1.67
2022-12-16T02:31:32.849Z,1.23
2022-12-16T02:34:11.647Z,1.43
2022-12-16T02:36:55.469Z,1.10
2022-12-16T02:39:26.447Z,1.43
2022-12-16T02:42:01.569Z,1.33
2022-12-16T02:44:35.684Z,1.60
2022-12-16T02:47:05.156Z,1.63
2022-12-16T02:49:51.368Z,1.50
2022-12-16T02:52:22.987Z,1.33
2022-12-16T02:54:55.433Z,1.27
2022-12-16T02:58:04.903Z,1.43
2022-12-16T03:00:41.819Z,1.40
2022-12-16T03:03:15.068Z,1.17
2022-12-16T03:05:48.211Z,1.60
2022-12-16T03:08:20.294Z,1.33
2022-12-16T03:10:53.602Z,1.27
2022-12-16T03:13:24.531Z,1.57
2022-12-16T03:15:57.635Z,1.20
2022-12-16T03:18:28.685Z,1.23
2022-12-16T03:21:00.925Z,1.20
2022-12-16T03:23:32.608Z,1.27
2022-12-16T03:26:07.176Z,1.00
2022-12-16T03:28:44.953Z,1.20
2022-12-16T03:31:26.641Z,1.40
2022-12-16T03:34:00.711Z,1.33
2022-12-16T03:36:32.953Z,1.40
2022-12-16T03:39:02.050Z,0.90
2022-12-16T03:41:30.879Z,0.90
2022-12-16T03:43:58.888Z,1.17
2022-12-16T03:46:27.678Z,1.20
2022-12-16T03:48:57.334Z,1.07
2022-12-16T03:51:25.477Z,0.87
2022-12-16T03:53:53.420Z,1.17
2022-12-16T03:56:21.330Z,1.00
2022-12-16T03:58:49.263Z,0.80
2022-12-16T04:01:17.224Z,1.00
2022-12-16T04:03:45.580Z,1.37
2022-12-16T04:06:18.874Z,1.00
2022-12-16T04:08:47.506Z,1.20
2022-12-16T04:11:33.591Z,1.20
2022-12-16T04:14:19.328Z,0.83
2022-12-16T04:17:05.010Z,1.10
2022-12-16T04:19:55.162Z,1.20
2022-12-16T04:22:45.043Z,1.43
2022-12-16T04:25:17.216Z,1.10
2022-12-16T04:27:47.919Z,1.03
2022-12-16T04:30:20.012Z,1.10
2022-12-16T04:33:07.508Z,1.20
2022-12-16T04:35:53.079Z,1.33
2022-12-16T04:38:40.391Z,1.30
2022-12-16T04:41:26.899Z,1.50
2022-12-16T04:44:12.400Z,1.03
2022-12-16T04:46:58.345Z,1.23
2022-12-16T04:49:43.822Z,1.10
2022-12-16T04:52:29.938Z,1.70
2022-12-16T04:55:16.662Z,1.37
2022-12-16T04:58:03.483Z,1.43
2022-12-16T05:00:49.011Z,1.23
2022-12-16T05:03:35.065Z,1.50
2022-12-16T05:06:21.239Z,1.70
2022-12-16T05:09:21.282Z,1.67
2022-12-16T05:12:08.899Z,1.30
2022-12-16T05:14:54.839Z,1.87
2022-12-16T05:17:40.922Z,1.40
2022-12-16T05:20:27.146Z,1.60
2022-12-16T05:23:14.426Z,1.67
2022-12-16T05:26:00.610Z,1.57
2022-12-16T05:29:05.646Z,1.63
2022-12-16T05:31:51.258Z,1.57
2022-12-16T05:34:37.553Z,1.47
2022-12-16T05:37:23.415Z,1.70
2022-12-16T05:40:08.671Z,1.67
2022-12-16T05:43:03.272Z,1.40
2022-12-16T05:45:50.237Z,1.60
2022-12-16T05:48:35.988Z,1.73
2022-12-16T05:51:21.676Z,1.30
2022-12-16T05:54:07.335Z,1.53
2022-12-16T05:56:54.032Z,1.70
2022-12-16T05:59:39.816Z,1.27
2022-12-16T06:02:26.739Z,1.50
2022-12-16T06:05:12.413Z,1.73
2022-12-16T06:07:58.507Z,1.70
2022-12-16T06:10:44.110Z,1.53
2022-12-16T06:13:30.081Z,1.40
2022-12-16T06:16:15.943Z,1.60
2022-12-16T06:19:03.229Z,1.90
2022-12-16T06:21:48.438Z,1.70
2022-12-16T06:24:34.050Z,1.70
2022-12-16T06:27:19.916Z,1.80
2022-12-16T06:30:08.800Z,2.00
2022-12-16T06:32:54.071Z,1.80
2022-12-16T06:35:41.139Z,1.90
2022-12-16T06:38:26.505Z,2.20
2022-12-16T06:41:12.040Z,2.50
2022-12-16T06:43:57.734Z,2.30
2022-12-16T06:46:43.284Z,2.47
2022-12-16T06:49:28.556Z,2.50
2022-12-16T06:52:15.418Z,2.80
2022-12-16T06:55:00.947Z,2.37
2022-12-16T06:57:46.609Z,2.50
2022-12-16T07:00:58.321Z,2.03
2022-12-16T07:03:43.869Z,2.30
2022-12-16T07:06:29.418Z,2.53
2022-12-16T07:09:16.389Z,2.90
2022-12-16T07:12:01.771Z,2.23
2022-12-16T07:14:55.923Z,3.03
2022-12-16T07:17:41.543Z,2.30
2022-12-16T07:20:28.526Z,2.73
2022-12-16T07:23:19.628Z,2.60
2022-12-16T07:26:08.104Z,2.77
2022-12-16T07:28:54.908Z,2.87
2022-12-16T07:31:41.250Z,3.50
2022-12-16T07:34:27.017Z,3.20
2022-12-16T07:37:15.040Z,3.80
2022-12-16T07:40:01.051Z,3.40
2022-12-16T07:42:50.577Z,3.27
2022-12-16T07:45:39.169Z,3.73
2022-12-16T07:48:42.530Z,3.47
2022-12-16T07:51:28.292Z,3.60
2022-12-16T07:54:14.065Z,3.23
2022-12-16T07:56:59.693Z,3.70
2022-12-16T07:59:46.769Z,3.43
2022-12-16T08:02:32.518Z,3.90
2022-12-16T08:05:18.531Z,3.70
2022-12-16T08:08:04.572Z,4.53
2022-12-16T08:10:50.361Z,3.97
2022-12-16T08:13:33.202Z,3.33
2022-12-16T08:16:20.254Z,3.10
2022-12-16T08:19:10.683Z,3.30
2022-12-16T08:21:57.087Z,3.20
2022-12-16T08:24:43.803Z,2.73
2022-12-16T08:27:32.290Z,3.00
2022-12-16T08:30:17.842Z,3.17
2022-12-16T08:36:10.953Z,3.30
2022-12-16T08:38:56.801Z,2.60
2022-12-16T08:41:42.231Z,2.70
2022-12-16T08:44:27.764Z,2.40
2022-12-16T08:47:13.573Z,2.90
2022-12-16T08:50:02.228Z,3.07
2022-12-16T08:52:48.823Z,2.10
2022-12-16T08:55:34.843Z,2.60
2022-12-16T08:58:20.330Z,2.53
2022-12-16T09:01:07.869Z,2.50
2022-12-16T09:03:54.206Z,3.00
2022-12-16T09:06:41.904Z,2.50
2022-12-16T09:09:28.078Z,2.73
2022-12-16T09:12:13.668Z,2.83
2022-12-16T09:14:59.365Z,2.90
2022-12-16T09:17:45.245Z,2.30
2022-12-16T09:20:30.946Z,2.70
2022-12-16T09:23:20.736Z,2.83
2022-12-16T09:26:06.707Z,3.07
2022-12-16T09:28:52.245Z,2.80
2022-12-16T09:31:38.605Z,2.33
2022-12-16T09:34:24.338Z,2.60
2022-12-16T09:37:46.865Z,2.60
2022-12-16T09:40:36.866Z,3.10
2022-12-16T09:43:27.843Z,2.60
2022-12-16T09:46:23.611Z,2.70
2022-12-16T09:49:20.338Z,2.63
2022-12-16T09:52:18.189Z,3.03
2022-12-16T09:55:06.076Z,2.53
2022-12-16T09:57:56.140Z,2.33
2022-12-16T10:00:45.994Z,2.57
2022-12-16T10:03:40.665Z,2.40
2022-12-16T10:06:35.751Z,2.40
2022-12-16T10:09:29.419Z,2.20
2022-12-16T10:12:23.023Z,2.50
2022-12-16T10:15:21.641Z,2.40
2022-12-16T10:18:08.721Z,1.63
2022-12-16T10:21:02.146Z,2.33
2022-12-16T10:23:55.562Z,2.30
2022-12-16T10:29:22.427Z,2.10
2022-12-16T10:32:12.939Z,1.90
2022-12-16T10:35:06.510Z,2.10
2022-12-16T10:38:14.567Z,2.37
2022-12-16T10:41:09.561Z,2.27
2022-12-16T10:47:04.586Z,1.90
2022-12-16T10:53:04.497Z,2.63
2022-12-16T10:55:59.874Z,1.70
2022-12-16T10:58:58.326Z,2.17
2022-12-16T11:05:01.611Z,2.30
2022-12-16T11:07:52.063Z,2.60
2022-12-16T11:10:45.383Z,2.00
2022-12-16T11:13:40.187Z,1.90
2022-12-16T11:16:34.551Z,2.17
2022-12-16T11:19:21.001Z,2.30
2022-12-16T11:22:08.402Z,2.10
2022-12-16T11:24:54.462Z,2.57
2022-12-16T11:27:44.591Z,2.23
2022-12-16T11:30:41.146Z,2.07
2022-12-16T11:33:36.327Z,2.60
2022-12-16T11:36:30.371Z,2.30
2022-12-16T11:39:23.060Z,2.57
2022-12-16T11:42:13.130Z,1.90
2022-12-16T11:45:03.833Z,2.80
2022-12-16T11:47:56.924Z,1.93
2022-12-16T11:50:45.909Z,2.63
2022-12-16T11:53:49.299Z,2.13
2022-12-16T11:56:41.143Z,1.70
2022-12-16T11:59:34.006Z,2.30
2022-12-16T12:02:23.252Z,2.03
2022-12-16T12:05:09.760Z,2.00
2022-12-16T12:08:05.019Z,1.63
2022-12-16T12:11:07.353Z,2.10
2022-12-16T12:14:08.885Z,2.00
2022-12-16T12:17:20.811Z,1.70
2022-12-16T12:20:16.253Z,1.90
2022-12-16T12:23:01.926Z,1.77
2022-12-16T12:25:56.427Z,2.03
2022-12-16T12:28:58.360Z,1.87
2022-12-16T12:31:56.196Z,1.80
2022-12-16T12:34:49.216Z,1.43
2022-12-16T12:37:43.295Z,1.63
2022-12-16T12:40:41.422Z,2.30
2022-12-16T12:43:43.460Z,2.20
2022-12-16T12:46:36.052Z,2.30
2022-12-16T12:49:32.198Z,1.97
2022-12-16T12:52:25.931Z,2.17
2022-12-16T12:55:17.179Z,2.20
2022-12-16T12:58:05.181Z,1.90
2022-12-16T13:00:59.420Z,2.13
2022-12-16T13:03:52.442Z,2.03
2022-12-16T13:06:41.696Z,1.90
2022-12-16T13:09:44.422Z,2.10
2022-12-16T13:12:53.384Z,1.60
2022-12-16T13:15:54.600Z,2.00
2022-12-16T13:18:45.047Z,1.93
2022-12-16T13:22:13.375Z,1.70
2022-12-16T13:25:03.197Z,1.87
2022-12-16T13:28:04.480Z,2.20
2022-12-16T13:30:52.953Z,2.07
2022-12-16T13:33:47.570Z,1.83
2022-12-16T13:36:35.160Z,2.07
2022-12-16T13:39:40.333Z,1.80
2022-12-16T13:42:58.970Z,2.00
2022-12-16T13:45:50.358Z,1.90
2022-12-16T13:48:55.022Z,1.80
2022-12-16T13:52:15.504Z,2.20
2022-12-16T13:55:10.216Z,2.07
2022-12-16T13:58:01.287Z,1.80
2022-12-16T14:00:48.682Z,2.27
2022-12-16T14:03:39.153Z,2.07
2022-12-16T14:06:31.533Z,1.90
2022-12-16T14:09:22.960Z,2.07
2022-12-16T14:12:16.952Z,1.83
2022-12-16T14:15:10.770Z,1.40
2022-12-16T14:18:05.561Z,1.80
2022-12-16T14:21:00.175Z,1.93
2022-12-16T14:23:56.932Z,1.87
2022-12-16T14:26:44.168Z,1.80
2022-12-16T14:29:35.546Z,1.67
2022-12-16T14:32:37.561Z,1.70
2022-12-16T14:35:30.067Z,1.83
2022-12-16T14:38:16.786Z,1.70
2022-12-16T14:41:08.593Z,1.77
2022-12-16T14:44:05.942Z,1.97
2022-12-16T14:46:52.952Z,1.73
2022-12-16T14:49:41.881Z,1.93
2022-12-16T14:52:36.681Z,1.87
2022-12-16T14:55:46.253Z,2.00
2022-12-16T14:58:33.785Z,1.83
2022-12-16T15:01:28.763Z,2.00
2022-12-16T15:04:16.630Z,1.63
2022-12-16T15:07:06.170Z,2.10
2022-12-16T15:09:57.136Z,2.20
2022-12-16T15:12:45.387Z,2.13
2022-12-16T15:15:37.208Z,2.30
2022-12-16T15:18:34.720Z,2.77
2022-12-16T15:21:37.187Z,2.60
2022-12-16T15:24:27.505Z,3.70
2022-12-16T15:27:41.500Z,3.60
2022-12-16T15:30:53.188Z,4.87
2022-12-16T15:33:41.717Z,4.80
2022-12-16T15:36:43.192Z,4.53
2022-12-16T15:39:40.163Z,5.33
2022-12-16T15:42:38.631Z,4.27
2022-12-16T15:45:34.446Z,4.37
2022-12-16T15:48:30.692Z,5.35
2022-12-16T15:51:16.626Z,5.17
2022-12-16T15:54:03.512Z,5.07
2022-12-16T15:57:02.552Z,4.90
2022-12-16T15:59:49.898Z,4.37
2022-12-16T16:02:38.827Z,4.30
2022-12-16T16:05:30.984Z,4.33
2022-12-16T16:08:18.510Z,4.10
2022-12-16T16:11:06.104Z,4.43
2022-12-16T16:13:52.418Z,4.30
2022-12-16T16:16:38.364Z,4.87
2022-12-16T16:19:31.120Z,4.67
2022-12-16T16:22:28.193Z,4.80
2022-12-16T16:25:14.155Z,5.10
2022-12-16T16:28:01.827Z,5.30
2022-12-16T16:30:48.138Z,5.50
2022-12-16T16:33:34.500Z,5.73
2022-12-16T16:36:20.291Z,6.50
2022-12-16T16:39:05.927Z,11.17
2022-12-16T16:41:51.720Z,9.10
2022-12-16T16:44:38.797Z,7.90
2022-12-16T16:47:33.926Z,7.73
2022-12-16T16:50:19.729Z,12.67
2022-12-16T16:53:05.765Z,11.50
2022-12-16T16:55:51.340Z,10.30
2022-12-16T16:58:42.174Z,10.50
2022-12-16T17:01:31.641Z,10.50
2022-12-16T17:04:22.791Z,9.53
2022-12-16T17:07:08.997Z,10.13
2022-12-16T17:09:54.588Z,9.83
2022-12-16T17:12:43.665Z,10.20
2022-12-16T17:15:38.603Z,10.90
2022-12-16T17:18:26.177Z,10.37
2022-12-16T17:21:12.396Z,10.17
2022-12-16T17:23:58.229Z,11.67
2022-12-16T17:26:44.663Z,10.63
2022-12-16T17:29:36.522Z,10.23
2022-12-16T17:32:22.399Z,9.17
2022-12-16T17:35:09.401Z,9.57
2022-12-16T17:37:55.243Z,10.00
2022-12-16T17:40:41.231Z,10.07
2022-12-16T17:43:26.925Z,11.20
2022-12-16T17:46:17.686Z,10.67
2022-12-16T17:49:03.551Z,10.00
2022-12-16T17:51:50.377Z,10.73
2022-12-16T17:54:36.498Z,11.77
2022-12-16T17:57:22.449Z,11.40
2022-12-16T18:00:07.794Z,12.10
2022-12-16T18:02:53.621Z,11.43
2022-12-16T18:05:44.403Z,10.20
2022-12-16T18:08:31.887Z,9.17
2022-12-16T18:11:18.029Z,10.27
2022-12-16T18:14:03.955Z,10.23
2022-12-16T18:16:49.558Z,9.40
2022-12-16T18:19:35.869Z,8.50
2022-12-16T18:22:22.442Z,8.90
2022-12-16T18:25:12.055Z,9.00
2022-12-16T18:27:57.768Z,8.77
2022-12-16T18:30:43.696Z,9.07
2022-12-16T18:33:29.852Z,8.07
2022-12-16T18:36:27.023Z,8.70
2022-12-16T18:39:12.667Z,8.47
2022-12-16T18:42:03.510Z,8.27
2022-12-16T18:44:49.141Z,9.30
2022-12-16T18:47:35.271Z,8.80
2022-12-16T18:50:27.219Z,8.70
2022-12-16T18:53:31.940Z,9.73
2022-12-16T18:56:19.194Z,9.27
2022-12-16T18:59:06.834Z,9.90
2022-12-16T19:01:52.300Z,10.33
2022-12-16T19:04:39.907Z,9.80
2022-12-16T19:07:34.005Z,9.40
2022-12-16T19:10:24.697Z,10.07
2022-12-16T19:13:14.373Z,9.97
2022-12-16T19:16:02.560Z,9.90
2022-12-16T19:18:51.049Z,9.03
2022-12-16T19:21:38.159Z,10.13
2022-12-16T19:24:28.734Z,10.10
2022-12-16T19:27:15.676Z,10.03
2022-12-16T19:30:02.321Z,11.07
2022-12-16T19:32:51.345Z,11.20
2022-12-16T19:35:37.392Z,11.20
2022-12-16T19:38:23.414Z,11.60
2022-12-16T19:41:10.355Z,11.47
2022-12-16T19:44:05.159Z,12.47
2022-12-16T19:46:56.238Z,12.17
2022-12-16T19:49:46.914Z,12.83
2022-12-16T19:52:33.015Z,12.27
2022-12-16T19:58:21.451Z,13.67
2022-12-16T20:01:11.297Z,13.50
2022-12-16T20:03:57.812Z,13.23
2022-12-16T20:06:45.271Z,14.30
2022-12-16T20:09:54.784Z,14.60
2022-12-16T20:12:42.083Z,14.67
2022-12-16T20:15:49.401Z,14.80
2022-12-16T20:18:35.453Z,13.53
2022-12-16T20:21:24.630Z,14.07
2022-12-16T20:24:22.786Z,14.37
2022-12-16T20:27:09.316Z,13.73
2022-12-16T20:30:02.270Z,14.90
2022-12-16T20:32:59.104Z,14.27
2022-12-16T20:36:15.300Z,14.20
2022-12-16T20:39:01.105Z,13.80
2022-12-16T20:41:51.710Z,12.87
2022-12-16T20:44:46.119Z,12.77
2022-12-16T20:47:32.150Z,12.97
2022-12-16T20:50:17.878Z,13.43
2022-12-16T20:53:05.074Z,13.40
2022-12-16T20:55:51.639Z,12.47
2022-12-16T20:58:40.446Z,13.20
2022-12-16T21:01:26.708Z,12.37
2022-12-16T21:04:12.792Z,12.83
2022-12-16T21:06:58.831Z,17.60
2022-12-16T21:09:52.094Z,18.50
2022-12-16T21:12:37.928Z,19.50
2022-12-16T21:15:28.724Z,20.30
2022-12-16T21:18:18.581Z,19.70
2022-12-16T21:21:10.479Z,19.77
2022-12-16T21:23:58.575Z,18.00
2022-12-16T21:26:45.965Z,19.30
2022-12-16T21:29:33.147Z,17.50
2022-12-16T21:32:20.822Z,18.80
2022-12-16T21:35:10.386Z,18.97
2022-12-16T21:38:15.952Z,17.20
2022-12-16T21:41:04.378Z,18.00
2022-12-16T21:43:54.329Z,16.17
2022-12-16T21:46:44.046Z,15.87
2022-12-16T21:50:18.268Z,16.73
2022-12-16T21:53:06.660Z,16.03
2022-12-16T21:55:56.765Z,16.07
2022-12-16T21:58:44.356Z,15.63
2022-12-16T22:01:30.585Z,15.73
2022-12-16T22:04:19.490Z,15.23
2022-12-16T22:07:06.695Z,16.20
2022-12-16T22:12:56.262Z,14.20
2022-12-16T22:15:42.377Z,15.60
2022-12-16T22:18:28.522Z,14.60
2022-12-16T22:21:18.521Z,14.93
2022-12-16T22:24:09.540Z,14.07
2022-12-16T22:26:56.914Z,14.57
2022-12-16T22:29:43.789Z,14.93
2022-12-16T22:32:50.497Z,14.93
2022-12-16T22:35:36.691Z,14.50
2022-12-16T22:38:43.836Z,13.83
2022-12-16T22:41:31.986Z,14.73
2022-12-16T22:44:38.900Z,13.50
2022-12-16T22:47:29.446Z,12.43
2022-12-16T22:50:16.356Z,12.50
2022-12-16T22:53:03.164Z,13.57
2022-12-16T22:55:50.155Z,12.83
2022-12-16T22:58:39.462Z,11.53
2022-12-16T23:01:27.839Z,12.90
2022-12-16T23:04:16.610Z,12.90
2022-12-16T23:07:08.565Z,12.27
2022-12-16T23:10:22.946Z,10.90
2022-12-16T23:13:13.088Z,11.93
2022-12-16T23:16:00.656Z,10.57
2022-12-16T23:18:48.114Z,11.83
2022-12-16T23:21:35.362Z,11.47
2022-12-16T23:24:21.542Z,9.67
2022-12-16T23:27:08.433Z,11.37
2022-12-16T23:29:56.773Z,10.40
2022-12-16T23:32:44.786Z,10.10
2022-12-16T23:35:31.032Z,10.37
2022-12-16T23:38:24.731Z,10.50
2022-12-16T23:41:17.276Z,9.33
2022-12-16T23:44:05.115Z,10.10
2022-12-16T23:46:51.492Z,9.90
2022-12-16T23:49:41.568Z,10.23
2022-12-16T23:52:28.447Z,10.40
2022-12-16T23:55:14.313Z,9.73
2022-12-16T23:58:02.947Z,10.17
